Flight Track Log - Related Links

Times and Time Zones

All times are in EDT time to prevent confusion due to time zone crossing. See the SWA127 flight status page for this flight to view local times or setup timezone preferences in your user account.

Time Position Orientation Groundspeed Altitude Reporting Facility
EDT Latitude Longitude Course Direction KTS MPH feet Rate Location/Type
Thu 06:41:09 AM 40.4422 -80.3211 180° South 254 292 4,100  Level Cleveland Center
Thu 06:42:09 AM 40.3794 -80.3214 180° South 266 306 7,500 3,100 Climbing Cleveland Center
Thu 06:43:09 AM 40.2919 -80.3164 178° South 287 330 10,300 2,900 Climbing Cleveland Center
Thu 06:44:09 AM 40.2022 -80.3114 178° South 312 359 13,300 2,900 Climbing Cleveland Center
Thu 06:45:09 AM 40.1106 -80.3061 177° South 332 382 16,100 2,150 Climbing Cleveland Center
Thu 06:46:00 AM 39.6682 -80.2500 180° South  Level FlightAware Approximate
Thu 06:46:09 AM 40.0125 -80.3011 178° South 345 397 17,600  Level Cleveland Center
Thu 06:47:09 AM 39.9042 -80.2961 178° South 364 419 19,600 2,100 Climbing Cleveland Center
Thu 06:48:09 AM 39.7936 -80.2914 178° South 388 447 21,800 1,850 Climbing Cleveland Center
Thu 06:49:09 AM 39.6792 -80.2864 178° South 405 466 23,300 1,422 Climbing Cleveland Center
Thu 06:51:02 AM 39.4642 -80.2772 178° South 442 509 25,900 1,353 Climbing Washington Center
Thu 06:52:02 AM 39.3394 -80.2719 178° South 447 514 27,200 1,600 Climbing Washington Center
Thu 06:53:02 AM 39.2161 -80.2800 183° South 447 514 29,100 1,300 Climbing Washington Center
Thu 06:54:02 AM 39.0797 -80.3006 187° South 447 514 29,800 3,450 Climbing Washington Center
Thu 06:55:02 AM 38.9733 -80.3578 203° Southwest 447 514 36,000 850 Climbing Washington Center
Thu 06:56:02 AM 38.8489 -80.3872 190° South 447 514 31,500 -2,000 Descending Washington Center
Thu 06:57:02 AM 38.7264 -80.4297 195° South 452 520 32,000 250 Climbing Washington Center
Thu 06:58:02 AM 38.6122 -80.4647 193° South 457 526 32,000  Level Washington Center
Thu 06:59:02 AM 38.4878 -80.4989 192° South 457 526 32,000  Level Washington Center
Thu 07:00:02 AM 38.3508 -80.5375 192° South 457 526 32,000 -150 Level Washington Center
Thu 07:01:02 AM 38.2228 -80.5556 186° South 457 526 31,700 -700 Descending Washington Center
Thu 07:02:02 AM 38.1011 -80.5739 187° South 452 520 30,600 -850 Descending Washington Center
Thu 07:03:02 AM 37.9900 -80.5875 186° South 452 520 30,000 -199 Descending Washington Center
Thu 07:05:03 AM 37.7433 -80.6253 187° South 448 516 30,000 -199 Level Atlanta Center
Thu 07:06:03 AM 37.6061 -80.6419 185° South 442 509 29,400 -500 Descending Atlanta Center
Thu 07:07:03 AM 37.4839 -80.6603 187° South 442 509 29,000 -200 Descending Atlanta Center
Thu 07:08:03 AM 37.3633 -80.6758 186° South 442 509 29,000  Level Atlanta Center
Thu 07:09:03 AM 37.2511 -80.6911 186° South 442 509 29,000  Level Atlanta Center
Thu 07:10:03 AM 37.1203 -80.7097 186° South 459 528 29,000  Level Atlanta Center
Thu 07:11:03 AM 36.9875 -80.7256 185° South 473 544 29,000  Level Atlanta Center
Thu 07:12:03 AM 36.8544 -80.7389 185° South 480 552 29,000  Level Atlanta Center
Thu 07:13:03 AM 36.7294 -80.7519 185° South 475 547 29,000 -200 Level Atlanta Center
Thu 07:14:03 AM 36.5967 -80.7678 185° South 480 552 28,600 -500 Descending Atlanta Center
Thu 07:15:03 AM 36.4697 -80.7781 184° South 475 547 28,000 -300 Descending Atlanta Center
Thu 07:16:03 AM 36.3450 -80.7961 187° South 463 533 28,000  Level Atlanta Center
Thu 07:17:03 AM 36.2056 -80.8094 184° South 463 533 28,000  Level Atlanta Center
Thu 07:18:03 AM 36.0767 -80.8222 185° South 463 533 28,000  Level Atlanta Center
Thu 07:19:03 AM 35.9478 -80.8378 186° South 463 533 28,000  Level Atlanta Center
Thu 07:20:03 AM 35.8186 -80.8503 184° South 463 533 28,000  Level Atlanta Center
Thu 07:21:03 AM 35.6897 -80.8631 185° South 463 533 28,000  Level Atlanta Center
Thu 07:22:03 AM 35.5608 -80.8783 186° South 463 533 28,000  Level Atlanta Center
Thu 07:23:03 AM 35.4442 -80.8878 184° South 469 540 28,000  Level Atlanta Center
Thu 07:24:03 AM 35.3153 -80.9056 186° South 469 540 28,000  Level Atlanta Center
Thu 07:26:16 AM 35.0250 -80.9381 185° South 478 550 28,000  Level Jacksonville Center
Thu 07:27:16 AM 34.8958 -80.9514 185° South 472 543 28,000  Level Jacksonville Center
Thu 07:28:16 AM 34.7667 -80.9617 184° South 478 550 28,000  Level Jacksonville Center
Thu 07:29:16 AM 34.6356 -80.9800 187° South 478 550 28,000  Level Jacksonville Center
Thu 07:30:16 AM 34.5064 -80.9903 184° South 478 550 28,000  Level Jacksonville Center
Thu 07:31:16 AM 34.3647 -81.0061 185° South 478 550 28,000  Level Jacksonville Center
Thu 07:32:16 AM 34.2356 -81.0189 185° South 473 544 28,000  Level Jacksonville Center
Thu 07:33:16 AM 34.1086 -81.0292 184° South 467 537 28,000  Level Jacksonville Center
Thu 07:34:16 AM 33.9753 -81.0419 185° South 467 537 28,000  Level Jacksonville Center
Thu 07:35:16 AM 33.8481 -81.0547 185° South 472 543 28,000  Level Jacksonville Center
Thu 07:36:16 AM 33.7147 -81.0700 185° South 472 543 28,000  Level Jacksonville Center
Thu 07:37:16 AM 33.5833 -81.0800 184° South 477 549 28,000  Level Jacksonville Center
Thu 07:38:16 AM 33.4522 -81.0928 185° South 477 549 28,000  Level Jacksonville Center
Thu 07:39:16 AM 33.3208 -81.1028 184° South 477 549 28,000  Level Jacksonville Center
Thu 07:40:16 AM 33.1894 -81.1128 184° South 477 549 28,000  Level Jacksonville Center
Thu 07:41:16 AM 33.0603 -81.1253 185° South 477 549 28,000  Level Jacksonville Center
Thu 07:42:16 AM 32.9289 -81.1353 184° South 477 549 28,000  Level Jacksonville Center
Thu 07:43:16 AM 32.8081 -81.1475 185° South 483 556 28,000  Level Jacksonville Center
Thu 07:44:16 AM 32.6808 -81.1575 184° South 473 544 28,000  Level Jacksonville Center
Thu 07:45:16 AM 32.5347 -81.1700 184° South 473 544 28,000  Level Jacksonville Center
Thu 07:46:16 AM 32.4158 -81.1772 183° South 483 556 28,000  Level Jacksonville Center
Thu 07:47:16 AM 32.2825 -81.1897 185° South 483 556 28,000  Level Jacksonville Center
Thu 07:48:16 AM 32.1489 -81.1994 184° South 483 556 28,000  Level Jacksonville Center
Thu 07:49:16 AM 32.0175 -81.1969 179° South 473 544 28,000  Level Jacksonville Center
Thu 07:50:16 AM 31.8858 -81.1922 178° South 473 544 28,000  Level Jacksonville Center
Thu 07:51:16 AM 31.7417 -81.1875 178° South 478 550 28,000  Level Jacksonville Center
Thu 07:52:16 AM 31.6081 -81.1850 179° South 478 550 28,000  Level Jacksonville Center
Thu 07:53:16 AM 31.4889 -81.1797 178° South 478 550 28,000  Level Jacksonville Center
Thu 07:54:16 AM 31.3406 -81.1778 179° South 483 556 28,000  Level Jacksonville Center
Thu 07:55:16 AM 31.2092 -81.1753 179° South 478 550 28,000  Level Jacksonville Center
Thu 07:56:16 AM 31.0733 -81.1706 178° South 483 556 28,000 -50 Level Jacksonville Center
Thu 07:57:16 AM 30.9458 -81.1656 178° South 478 550 27,900  Descending Jacksonville Center
Thu 07:58:16 AM 30.8164 -81.1606 178° South 473 544 28,000 50 Climbing Jacksonville Center
Thu 07:59:16 AM 30.6828 -81.1558 178° South 473 544 28,000  Level Jacksonville Center
Thu 08:00:16 AM 30.5533 -81.1533 179° South 473 544 28,000  Level Jacksonville Center
Thu 08:01:16 AM 30.4258 -81.1483 178° South 473 544 28,000  Level Jacksonville Center
Thu 08:02:16 AM 30.2964 -81.1436 178° South 467 537 28,000  Level Jacksonville Center
Thu 08:03:16 AM 30.1667 -81.1411 179° South 467 537 28,000  Level Jacksonville Center
Thu 08:04:16 AM 30.0394 -81.1364 178° South 467 537 28,000 -50 Level Jacksonville Center
Thu 08:05:16 AM 29.9119 -81.1336 179° South 462 532 27,900 -350 Descending Jacksonville Center
Thu 08:06:16 AM 29.7803 -81.1289 178° South 462 532 27,300 -1,600 Descending Jacksonville Center
Thu 08:07:16 AM 29.6572 -81.1289 180° South 456 525 24,700 -2,600 Descending Jacksonville Center
Thu 08:08:16 AM 29.5361 -81.1239 178° South 450 518 22,100 -2,250 Descending Jacksonville Center
Thu 08:09:16 AM 29.4358 -81.1208 178° South 425 489 20,200 -2,100 Descending Jacksonville Center
Thu 08:10:16 AM 29.3250 -81.1133 177° South 411 473 17,900 -2,300 Descending Jacksonville Center
Thu 08:11:16 AM 29.2228 -81.1081 177° South 389 448 15,600 -2,200 Descending Jacksonville Center
Thu 08:12:16 AM 29.1244 -81.1003 176° South 371 427 13,500 -1,800 Descending Jacksonville Center
Thu 08:13:16 AM 29.0306 -81.0925 176° South 360 414 12,000 -900 Descending Jacksonville Center
Thu 08:14:16 AM 28.9428 -81.0800 173° South 336 387 11,700 -1,132 Descending Jacksonville Center
Thu 08:15:02 AM 28.8667 -81.0667 171° South 290 334 10,000 -1,925 Descending Orlando TRACON
Thu 08:16:02 AM 28.8000 -81.0667 180° South 287 330 8,300 -1,632 Descending Orlando TRACON
Thu 08:16:56 AM 28.7500 -81.1167 221° Southwest 280 322 6,900 -1,600 Descending Orlando TRACON
Thu 08:18:02 AM 28.7000 -81.2000 236° Southwest 272 313 5,100 -1,150 Descending Orlando TRACON
Thu 08:18:56 AM 28.6667 -81.2500 233° Southwest 229 264 4,600 -632 Descending Orlando TRACON
Thu 08:19:56 AM 28.6333 -81.3000 233° Southwest 171 197 3,900 -800 Descending Orlando TRACON
Thu 08:20:56 AM 28.5833 -81.3000 180° South 147 169 3,000 -789 Descending Orlando TRACON
Thu 08:21:50 AM 28.5500 -81.3000 180° South 116 133 2,400 -600 Descending Orlando TRACON
Thu 08:22:56 AM 28.5167 -81.3000 180° South 119 137 1,800 -619 Descending Orlando TRACON
Thu 08:23:56 AM 28.4833 -81.3000 180° South 119 137 1,100 -650 Descending Orlando TRACON
Thu 08:24:56 AM 28.4500 -81.3000 180° South 125 144 500 -600 Descending Orlando TRACON
Thu 08:26:00 AM 28.4294 -81.3090 161° South  Level Estimated
Thu 08:33:00 AM 28.4294 -81.3090 336° Northwest  Level Estimated
Thu 08:34:00 AM 28.4294 -81.3090 336° Northwest  Level Estimated
Thu 08:35:00 AM 28.4294 -81.3090 336° Northwest  Level Estimated
Thu 08:36:00 AM 28.4294 -81.3090 336° Northwest  Level Estimated

Login

Don't have an account? Register now (free) for customized features, flight alerts, and more!